Time;durP1;ratioP1;P1;durP2;ratioP2;P2;SDS_P1;SDS_P2;PMS_P1;PMS_P2;Temp;Humidity;BMP_temperature;BMP_pressure;BME280_temperature;BME280_humidity;BME280_pressure;Samples;Min_cycle;Max_cycle;Signal;HPM_P1;HPM_P2
2023/04/15 00:01:24;;;;;;;11.13;5.05;;;9.60;88.80;;;;;;5113792;27;20512;-90
2023/04/15 00:03:54;;;;;;;13.05;5.15;;;9.60;89.30;;;;;;5089157;28;20040;-91
2023/04/15 00:06:22;;;;;;;10.30;4.78;;;9.60;89.70;;;;;;5076759;28;20120;-90
2023/04/15 00:08:49;;;;;;;11.55;4.55;;;9.50;90.30;;;;;;5076520;28;20040;-90
2023/04/15 00:11:16;;;;;;;10.05;4.70;;;9.50;90.40;;;;;;5110820;27;20050;-90
2023/04/15 00:13:43;;;;;;;8.73;4.80;;;9.50;90.80;;;;;;5096997;27;20534;-89
2023/04/15 00:16:09;;;;;;;10.93;5.20;;;9.50;90.60;;;;;;5096635;27;20062;-90
2023/04/15 00:18:36;;;;;;;9.68;4.05;;;9.40;91.10;;;;;;5081700;28;20120;-90
2023/04/15 00:21:02;;;;;;;8.65;4.45;;;9.40;91.70;;;;;;5076474;28;20070;-90
2023/04/15 00:23:27;;;;;;;9.25;4.22;;;9.40;91.40;;;;;;5084451;28;20529;-90
2023/04/15 00:25:54;;;;;;;9.48;4.78;;;9.30;92.10;;;;;;5076399;28;20051;-90
2023/04/15 00:28:19;;;;;;;10.75;4.75;;;9.30;91.90;;;;;;5079878;27;20062;-90
2023/04/15 00:30:46;;;;;;;10.38;4.82;;;9.30;92.40;;;;;;5095491;27;20123;-90
2023/04/15 00:33:12;;;;;;;11.50;4.88;;;9.30;92.90;;;;;;5096325;28;20111;-90
2023/04/15 00:35:38;;;;;;;9.85;4.88;;;9.20;92.90;;;;;;5095674;27;20434;-90
2023/04/15 00:38:06;;;;;;;12.00;4.95;;;9.20;93.20;;;;;;5113420;27;20488;-90
2023/04/15 00:40:32;;;;;;;11.13;4.75;;;9.10;93.80;;;;;;5089486;27;20027;-89
2023/04/15 00:42:57;;;;;;;9.45;4.90;;;9.10;94.20;;;;;;5095695;28;20114;-91
2023/04/15 00:45:23;;;;;;;11.40;4.65;;;9.10;94.60;;;;;;5094505;28;20122;-90
2023/04/15 00:47:50;;;;;;;9.70;4.80;;;9.00;94.70;;;;;;5111024;28;20027;-90
2023/04/15 00:50:15;;;;;;;10.23;4.75;;;9.00;94.90;;;;;;5095354;28;20031;-90
2023/04/15 00:52:41;;;;;;;10.57;4.68;;;9.00;95.00;;;;;;5095628;28;20103;-90
2023/04/15 00:55:07;;;;;;;11.57;5.22;;;8.90;95.30;;;;;;5083474;28;20092;-90
2023/04/15 00:57:33;;;;;;;10.02;5.00;;;8.90;95.40;;;;;;5076253;28;20048;-90
2023/04/15 00:59:59;;;;;;;11.80;4.72;;;8.80;95.90;;;;;;5088519;28;20046;-89
2023/04/15 01:02:26;;;;;;;12.15;5.05;;;8.80;96.20;;;;;;5110702;28;20043;-90
2023/04/15 01:04:51;;;;;;;10.32;5.22;;;8.70;96.10;;;;;;5106504;28;20511;-89
2023/04/15 01:07:17;;;;;;;10.30;4.45;;;8.80;96.00;;;;;;5075789;28;20082;-90
2023/04/15 01:09:44;;;;;;;10.70;4.85;;;8.70;96.30;;;;;;5079459;28;20042;-90
2023/04/15 01:12:13;;;;;;;9.98;4.72;;;8.70;96.70;;;;;;5111535;28;20085;-90
2023/04/15 01:14:38;;;;;;;11.10;4.72;;;8.60;96.80;;;;;;5096369;28;20031;-90
2023/04/15 01:17:04;;;;;;;8.30;4.22;;;8.60;96.50;;;;;;5096309;28;20095;-89
2023/04/15 01:19:30;;;;;;;9.40;4.03;;;8.50;96.30;;;;;;5075636;28;20654;-90
2023/04/15 01:21:56;;;;;;;9.75;4.47;;;8.50;96.10;;;;;;5076446;28;20096;-90
2023/04/15 01:24:22;;;;;;;8.60;4.18;;;8.30;95.60;;;;;;5092646;28;20039;-90
2023/04/15 01:26:49;;;;;;;11.82;4.63;;;8.20;95.60;;;;;;5112967;28;20039;-90
2023/04/15 01:29:15;;;;;;;10.48;4.13;;;8.10;96.00;;;;;;5094299;28;20043;-90
2023/04/15 01:31:48;;;;;;;10.93;5.30;;;7.90;96.30;;;;;;5095120;28;20039;-90
2023/04/15 01:34:14;;;;;;;9.00;3.92;;;7.90;96.60;;;;;;5112720;28;20031;-90
2023/04/15 01:36:39;;;;;;;11.18;3.88;;;7.70;96.60;;;;;;5112429;28;20110;-90
2023/04/15 01:39:06;;;;;;;9.20;4.30;;;7.60;96.90;;;;;;5095008;28;20031;-90
2023/04/15 01:41:31;;;;;;;9.15;4.10;;;7.50;97.30;;;;;;5088611;28;20432;-90
2023/04/15 01:43:57;;;;;;;8.00;3.67;;;7.50;98.00;;;;;;5093165;28;20074;-90
2023/04/15 01:46:22;;;;;;;8.82;4.60;;;7.40;97.80;;;;;;5095079;28;20523;-89
2023/04/15 01:48:48;;;;;;;8.88;4.00;;;7.30;98.10;;;;;;5084316;28;20049;-89
2023/04/15 01:51:14;;;;;;;11.13;4.75;;;7.20;98.50;;;;;;5095229;28;20075;-91
2023/04/15 01:53:39;;;;;;;12.65;5.35;;;7.20;98.90;;;;;;5103221;28;20039;-89
2023/04/15 01:56:06;;;;;;;9.52;5.45;;;7.20;99.20;;;;;;5095592;28;20054;-89
2023/04/15 01:58:31;;;;;;;9.90;5.55;;;7.20;99.50;;;;;;5110598;28;20096;-88
2023/04/15 02:00:57;;;;;;;14.07;5.32;;;7.30;99.90;;;;;;5095810;28;20435;-89
2023/04/15 02:03:24;;;;;;;12.50;5.75;;;7.30;99.90;;;;;;5078799;28;20494;-89
2023/04/15 02:05:50;;;;;;;11.20;5.70;;;7.40;99.90;;;;;;5103653;28;20035;-89
2023/04/15 02:08:16;;;;;;;12.07;5.72;;;7.50;99.90;;;;;;5078211;28;20063;-89
2023/04/15 02:10:41;;;;;;;10.77;6.15;;;7.50;99.90;;;;;;5082013;27;20401;-88
2023/04/15 02:13:07;;;;;;;12.65;5.75;;;7.50;99.90;;;;;;5098098;27;20038;-89
2023/04/15 02:15:33;;;;;;;12.07;6.20;;;7.50;99.90;;;;;;5081555;28;20061;-88
2023/04/15 02:17:59;;;;;;;10.18;5.68;;;7.50;99.90;;;;;;5094813;27;20042;-89
2023/04/15 02:20:25;;;;;;;11.25;5.20;;;7.50;99.90;;;;;;5115536;27;20088;-89
2023/04/15 02:22:51;;;;;;;10.68;5.72;;;7.50;99.90;;;;;;5097410;27;20038;-89
2023/04/15 02:25:17;;;;;;;9.95;4.97;;;7.40;99.90;;;;;;5099126;27;20039;-89
2023/04/15 02:27:43;;;;;;;12.07;5.50;;;7.40;99.90;;;;;;5097746;27;20038;-89
2023/04/15 02:30:09;;;;;;;11.00;5.30;;;7.40;99.90;;;;;;5098284;27;20504;-89
2023/04/15 02:32:36;;;;;;;10.10;5.25;;;7.40;99.90;;;;;;5114469;27;20067;-89
2023/04/15 02:35:06;;;;;;;12.35;5.35;;;7.40;99.90;;;;;;5097775;27;20035;-89
2023/04/15 02:37:39;;;;;;;10.75;5.32;;;7.40;99.90;;;;;;5098600;27;20035;-89
2023/04/15 02:40:06;;;;;;;12.00;5.28;;;7.40;99.90;;;;;;5096514;27;20058;-88
2023/04/15 02:42:32;;;;;;;10.40;5.50;;;7.30;99.90;;;;;;5098425;27;20046;-89
2023/04/15 02:44:58;;;;;;;13.45;6.18;;;7.40;99.90;;;;;;5097326;27;20456;-89
2023/04/15 02:47:23;;;;;;;12.40;5.47;;;7.40;99.90;;;;;;5098644;27;20039;-89
2023/04/15 02:49:49;;;;;;;12.95;5.40;;;7.40;99.90;;;;;;5105724;27;20035;-88
2023/04/15 02:52:15;;;;;;;11.82;5.97;;;7.40;99.90;;;;;;5097495;27;20028;-89
2023/04/15 02:54:41;;;;;;;12.80;6.50;;;7.40;99.90;;;;;;5097096;27;20493;-89
2023/04/15 02:57:06;;;;;;;12.55;5.57;;;7.40;99.90;;;;;;5097696;27;20039;-89
2023/04/15 02:59:32;;;;;;;12.60;5.70;;;7.40;99.90;;;;;;5114438;27;20061;-89
2023/04/15 03:02:00;;;;;;;11.15;6.03;;;7.40;99.90;;;;;;5097330;27;20039;-88
2023/04/15 03:04:28;;;;;;;12.57;5.57;;;7.40;99.90;;;;;;5097568;27;20043;-89
2023/04/15 03:06:55;;;;;;;12.82;6.40;;;7.40;99.90;;;;;;5097953;27;20039;-89
2023/04/15 03:09:20;;;;;;;11.48;5.90;;;7.30;99.90;;;;;;5082600;28;20047;-89
2023/04/15 03:11:46;;;;;;;11.80;5.97;;;7.30;99.90;;;;;;5093688;28;20040;-89
2023/04/15 03:14:12;;;;;;;12.60;6.35;;;7.30;99.90;;;;;;5102178;27;20034;-89
2023/04/15 03:16:37;;;;;;;12.52;6.95;;;7.30;99.90;;;;;;5114788;27;20031;-88
2023/04/15 03:19:03;;;;;;;11.57;5.45;;;7.20;99.90;;;;;;5097555;27;20039;-89
2023/04/15 03:21:28;;;;;;;12.07;6.10;;;7.20;99.90;;;;;;5113532;27;20114;-89
2023/04/15 03:23:55;;;;;;;13.82;6.47;;;7.20;99.90;;;;;;5097353;27;20092;-89
2023/04/15 03:26:29;;;;;;;15.05;6.68;;;7.20;99.90;;;;;;5085936;28;20054;-89
2023/04/15 03:28:55;;;;;;;11.85;6.03;;;7.20;99.90;;;;;;5077064;28;20036;-89
2023/04/15 03:31:21;;;;;;;13.95;6.35;;;7.20;99.90;;;;;;5108850;27;20046;-89
2023/04/15 03:33:46;;;;;;;10.93;5.85;;;7.10;99.90;;;;;;5097062;27;20027;-89
2023/04/15 03:36:12;;;;;;;13.20;6.15;;;7.10;99.90;;;;;;5096294;27;20039;-89
2023/04/15 03:38:37;;;;;;;14.60;6.38;;;7.00;99.90;;;;;;5113640;27;20459;-89
2023/04/15 03:41:03;;;;;;;12.75;6.57;;;6.90;99.90;;;;;;5113895;27;20047;-89
2023/04/15 03:43:29;;;;;;;11.10;6.25;;;6.90;99.90;;;;;;5113776;27;20041;-89
2023/04/15 03:45:55;;;;;;;14.88;6.70;;;6.90;99.90;;;;;;5113530;27;20047;-89
2023/04/15 03:48:20;;;;;;;13.73;6.45;;;6.80;99.90;;;;;;5114140;27;20045;-88
2023/04/15 03:50:47;;;;;;;12.90;7.07;;;6.80;99.90;;;;;;5096103;27;20043;-88
2023/04/15 03:53:12;;;;;;;13.20;6.53;;;6.80;99.90;;;;;;5097066;27;20042;-88
2023/04/15 03:55:38;;;;;;;12.35;6.30;;;6.70;99.90;;;;;;5101477;28;20031;-88
2023/04/15 03:58:04;;;;;;;14.88;7.50;;;6.70;99.90;;;;;;5107410;27;20037;-88
2023/04/15 04:00:30;;;;;;;12.18;6.65;;;6.60;99.90;;;;;;5096796;27;20556;-88
2023/04/15 04:02:56;;;;;;;12.35;6.32;;;6.60;99.90;;;;;;5093103;28;20502;-89
2023/04/15 04:05:21;;;;;;;16.02;7.30;;;6.60;99.90;;;;;;5076566;28;20038;-89
2023/04/15 04:07:47;;;;;;;13.80;6.47;;;6.50;99.90;;;;;;5092738;28;20039;-89
2023/04/15 04:10:13;;;;;;;14.18;5.95;;;6.50;99.90;;;;;;5090105;27;20116;-89
2023/04/15 04:12:38;;;;;;;13.02;6.30;;;6.40;99.90;;;;;;5096541;27;20035;-88
2023/04/15 04:15:05;;;;;;;12.15;6.43;;;6.40;99.90;;;;;;5112843;28;20042;-89
2023/04/15 04:17:31;;;;;;;13.57;6.53;;;6.40;99.90;;;;;;5113329;27;20547;-89
2023/04/15 04:19:57;;;;;;;13.40;7.28;;;6.30;99.90;;;;;;5112974;27;20172;-89
2023/04/15 04:22:23;;;;;;;12.45;6.53;;;6.30;99.90;;;;;;5095626;27;20182;-89
2023/04/15 04:24:49;;;;;;;13.73;6.75;;;6.30;99.90;;;;;;5097145;27;20035;-89
2023/04/15 04:27:15;;;;;;;13.90;6.88;;;6.20;99.90;;;;;;5087107;27;20039;-88
2023/04/15 04:29:40;;;;;;;14.85;6.82;;;6.20;99.90;;;;;;5075852;28;20039;-89
2023/04/15 04:32:06;;;;;;;13.38;6.32;;;6.20;99.90;;;;;;5082727;27;20591;-89
2023/04/15 04:34:32;;;;;;;14.15;7.05;;;6.10;99.90;;;;;;5113849;27;20095;-88
2023/04/15 04:36:57;;;;;;;15.60;6.97;;;6.10;99.90;;;;;;5092120;28;20043;-89
2023/04/15 04:39:23;;;;;;;13.07;7.30;;;6.10;99.90;;;;;;5112562;27;20168;-88
2023/04/15 04:41:51;;;;;;;13.85;7.20;;;6.10;99.90;;;;;;5095754;27;20100;-88
2023/04/15 04:44:16;;;;;;;14.07;7.15;;;6.00;99.90;;;;;;5095008;28;20500;-88
2023/04/15 04:46:42;;;;;;;12.88;5.95;;;6.00;99.90;;;;;;5096060;27;20076;-88
2023/04/15 04:49:07;;;;;;;11.77;6.13;;;6.00;99.90;;;;;;5090549;28;20031;-89
2023/04/15 04:51:33;;;;;;;13.55;6.63;;;5.90;99.90;;;;;;5091635;28;20047;-88
2023/04/15 04:53:59;;;;;;;12.23;6.00;;;5.80;99.90;;;;;;5100686;28;20039;-88
2023/04/15 04:56:24;;;;;;;12.20;6.43;;;5.80;99.90;;;;;;5075546;28;20695;-89
2023/04/15 04:58:50;;;;;;;13.10;6.65;;;5.80;99.90;;;;;;5075917;28;20071;-88
2023/04/15 05:01:16;;;;;;;11.30;5.47;;;5.70;99.90;;;;;;5083831;28;20038;-88
2023/04/15 05:03:41;;;;;;;10.90;5.68;;;5.60;99.90;;;;;;5112922;28;20103;-89
2023/04/15 05:06:07;;;;;;;14.00;6.57;;;5.60;99.90;;;;;;5095085;28;20039;-88
2023/04/15 05:08:33;;;;;;;13.43;5.93;;;5.60;99.90;;;;;;5112347;28;20039;-89
2023/04/15 05:10:59;;;;;;;12.60;6.47;;;5.60;99.90;;;;;;5095044;28;20039;-88
2023/04/15 05:13:25;;;;;;;10.43;5.72;;;5.60;99.90;;;;;;5107814;28;20111;-89
2023/04/15 05:15:50;;;;;;;11.48;5.65;;;5.60;99.90;;;;;;5096183;28;20514;-88
2023/04/15 05:18:16;;;;;;;11.70;5.10;;;5.50;99.90;;;;;;5095543;28;20453;-87
2023/04/15 05:20:42;;;;;;;11.77;6.07;;;5.50;99.90;;;;;;5082777;28;20035;-88
2023/04/15 05:23:07;;;;;;;15.02;6.45;;;5.40;99.90;;;;;;5075679;28;20715;-88
2023/04/15 05:25:33;;;;;;;14.60;7.10;;;5.50;99.90;;;;;;5126240;28;20043;-88
2023/04/15 05:27:59;;;;;;;14.85;6.80;;;5.50;99.90;;;;;;5094291;28;20036;-88
2023/04/15 05:30:25;;;;;;;13.57;7.07;;;5.50;99.90;;;;;;5105905;28;20119;-88
2023/04/15 05:32:51;;;;;;;15.30;7.22;;;5.60;99.90;;;;;;5113384;27;20454;-88
2023/04/15 05:35:16;;;;;;;14.27;7.38;;;5.60;99.90;;;;;;5111295;28;20476;-88
2023/04/15 05:37:42;;;;;;;15.82;7.35;;;5.70;99.90;;;;;;5109895;27;20717;-88
2023/04/15 05:40:09;;;;;;;15.23;7.15;;;5.70;99.90;;;;;;5115687;27;20035;-88
2023/04/15 05:42:35;;;;;;;16.33;6.93;;;5.70;99.90;;;;;;5110380;28;20540;-88
2023/04/15 05:45:04;;;;;;;13.60;7.22;;;5.80;99.90;;;;;;5095805;28;20657;-88
2023/04/15 05:47:30;;;;;;;16.55;6.65;;;5.80;99.90;;;;;;5078343;28;20035;-88
2023/04/15 05:49:55;;;;;;;13.85;7.05;;;5.80;99.90;;;;;;5094675;28;20046;-87
2023/04/15 05:52:21;;;;;;;15.93;8.13;;;5.90;99.90;;;;;;5094912;28;20492;-89
2023/04/15 05:54:46;;;;;;;13.25;6.50;;;5.90;99.90;;;;;;5108052;27;20053;-88
2023/04/15 05:57:12;;;;;;;13.63;6.72;;;6.00;99.90;;;;;;5099344;27;20122;-89
2023/04/15 05:59:38;;;;;;;14.52;6.97;;;6.00;99.90;;;;;;5096852;27;20039;-88
2023/04/15 06:02:03;;;;;;;15.40;8.07;;;6.00;99.90;;;;;;5078114;28;20400;-89
2023/04/15 06:04:29;;;;;;;15.43;7.47;;;6.10;99.90;;;;;;5079097;28;20039;-89
2023/04/15 06:06:55;;;;;;;14.98;7.93;;;6.10;99.90;;;;;;5086933;27;20062;-88
2023/04/15 06:09:21;;;;;;;15.63;7.10;;;6.20;99.90;;;;;;5078475;28;20446;-89
2023/04/15 06:11:47;;;;;;;14.88;8.00;;;6.20;99.90;;;;;;5082323;27;20035;-89
2023/04/15 06:14:13;;;;;;;15.23;7.22;;;6.30;99.90;;;;;;5098806;27;20628;-89
2023/04/15 06:16:38;;;;;;;13.65;7.28;;;6.40;99.90;;;;;;5114587;27;20042;-88
2023/04/15 06:19:04;;;;;;;13.00;6.95;;;6.40;99.90;;;;;;5107241;27;20039;-88
2023/04/15 06:21:30;;;;;;;15.57;7.60;;;6.50;99.90;;;;;;5114685;27;20062;-89
2023/04/15 06:23:57;;;;;;;18.33;10.38;;;6.60;99.90;;;;;;5097474;27;20047;-88
2023/04/15 06:26:23;;;;;;;16.25;8.48;;;6.60;99.90;;;;;;5115548;27;20540;-88
2023/04/15 06:28:48;;;;;;;15.48;8.20;;;6.80;99.90;;;;;;5114920;27;20039;-88
2023/04/15 06:31:14;;;;;;;13.30;7.57;;;6.80;99.90;;;;;;5085013;28;20055;-89
2023/04/15 06:33:40;;;;;;;16.10;8.63;;;7.00;99.90;;;;;;5076943;28;20611;-89
2023/04/15 06:36:06;;;;;;;17.30;9.27;;;7.00;99.90;;;;;;5085221;28;20028;-89
2023/04/15 06:38:31;;;;;;;13.43;7.82;;;7.20;99.90;;;;;;5077247;28;20032;-89
2023/04/15 06:40:57;;;;;;;18.33;8.23;;;7.30;99.90;;;;;;5085283;28;20055;-89
2023/04/15 06:43:23;;;;;;;14.13;7.70;;;7.30;99.90;;;;;;5076797;28;20035;-89
2023/04/15 06:45:48;;;;;;;16.42;8.13;;;7.40;99.90;;;;;;5079306;27;20032;-89
2023/04/15 06:48:14;;;;;;;13.98;7.68;;;7.50;99.90;;;;;;5096430;27;20043;-89
2023/04/15 06:50:40;;;;;;;16.13;8.23;;;7.60;99.90;;;;;;5104902;27;20035;-89
2023/04/15 06:53:06;;;;;;;17.30;8.57;;;7.70;99.90;;;;;;5099341;27;20073;-89
2023/04/15 06:55:32;;;;;;;17.85;8.32;;;7.70;99.90;;;;;;5095533;28;20046;-89
2023/04/15 06:57:58;;;;;;;13.77;7.97;;;7.80;99.90;;;;;;5083789;27;20039;-89
2023/04/15 07:00:24;;;;;;;14.35;7.47;;;7.90;99.90;;;;;;5115163;27;20031;-89
2023/04/15 07:02:50;;;;;;;14.43;7.28;;;8.00;99.90;;;;;;5097295;27;20035;-89
2023/04/15 07:05:16;;;;;;;13.15;6.40;;;8.00;99.90;;;;;;5098264;27;20062;-89
2023/04/15 07:07:41;;;;;;;14.23;7.15;;;8.10;99.90;;;;;;5098476;27;20404;-89
2023/04/15 07:10:08;;;;;;;14.68;7.65;;;8.10;99.90;;;;;;5104524;28;20040;-89
2023/04/15 07:12:34;;;;;;;14.68;7.45;;;8.20;99.90;;;;;;5077622;28;20062;-90
2023/04/15 07:15:00;;;;;;;14.38;7.53;;;8.20;99.90;;;;;;5085598;28;20044;-90
2023/04/15 07:17:26;;;;;;;14.00;6.78;;;8.30;99.90;;;;;;5077632;28;20108;-90
2023/04/15 07:19:51;;;;;;;14.88;7.55;;;8.30;99.90;;;;;;5094276;28;20123;-89
2023/04/15 07:22:17;;;;;;;12.85;5.90;;;8.30;99.90;;;;;;5093764;27;20077;-89
2023/04/15 07:24:42;;;;;;;13.57;6.78;;;8.40;99.90;;;;;;5115716;27;20035;-89
2023/04/15 07:27:08;;;;;;;12.45;6.38;;;8.50;99.90;;;;;;5105579;27;20512;-89
2023/04/15 07:29:34;;;;;;;14.45;7.13;;;8.50;99.90;;;;;;5097625;27;20050;-89
2023/04/15 07:31:59;;;;;;;17.23;7.75;;;8.60;99.90;;;;;;5099240;27;20038;-90
2023/04/15 07:34:25;;;;;;;12.80;6.78;;;8.70;99.90;;;;;;5095443;27;20084;-90
2023/04/15 07:36:51;;;;;;;13.43;6.43;;;8.80;99.90;;;;;;5098219;27;20039;-89
2023/04/15 07:39:17;;;;;;;12.52;6.50;;;8.80;99.90;;;;;;5093170;27;20035;-89
2023/04/15 07:41:43;;;;;;;13.27;6.30;;;8.90;99.90;;;;;;5076675;28;20051;-89
2023/04/15 07:44:09;;;;;;;13.25;6.78;;;8.90;99.90;;;;;;5094126;28;20035;-89
2023/04/15 07:46:36;;;;;;;12.70;6.38;;;9.00;99.90;;;;;;5078375;28;20092;-89
2023/04/15 07:49:01;;;;;;;15.77;6.80;;;9.10;99.90;;;;;;5080723;27;20075;-89
2023/04/15 07:51:28;;;;;;;11.48;6.20;;;9.10;99.90;;;;;;5094959;27;20035;-89
2023/04/15 07:53:53;;;;;;;13.75;6.43;;;9.20;99.90;;;;;;5079305;28;20158;-89
2023/04/15 07:56:19;;;;;;;13.88;6.47;;;9.20;99.90;;;;;;5075194;28;20122;-89
2023/04/15 07:58:45;;;;;;;11.90;5.97;;;9.30;99.90;;;;;;5084090;28;20550;-89
2023/04/15 08:01:11;;;;;;;15.27;6.38;;;9.40;99.90;;;;;;5075884;28;20394;-89
2023/04/15 08:03:37;;;;;;;14.68;6.20;;;9.40;99.90;;;;;;5075698;28;20046;-88
2023/04/15 08:06:02;;;;;;;14.65;6.15;;;9.50;99.90;;;;;;5080848;28;20508;-89
2023/04/15 08:08:28;;;;;;;12.52;6.15;;;9.50;99.90;;;;;;5075833;28;20047;-89
2023/04/15 08:10:54;;;;;;;12.77;6.45;;;9.60;99.90;;;;;;5079282;27;20046;-89
2023/04/15 08:13:19;;;;;;;11.10;5.90;;;9.70;99.90;;;;;;5094949;27;20039;-89
2023/04/15 08:15:46;;;;;;;11.50;5.88;;;9.80;99.90;;;;;;5086285;28;20104;-89
2023/04/15 08:18:11;;;;;;;13.23;6.18;;;9.80;99.90;;;;;;5084294;28;20039;-89
2023/04/15 08:20:37;;;;;;;11.90;6.07;;;9.90;99.90;;;;;;5092972;28;20031;-89
2023/04/15 08:23:03;;;;;;;11.77;6.28;;;10.00;99.90;;;;;;5081664;27;20088;-89
2023/04/15 08:25:29;;;;;;;14.18;6.10;;;10.10;99.90;;;;;;5096367;27;20082;-89
2023/04/15 08:27:56;;;;;;;13.77;5.80;;;10.10;99.90;;;;;;5113263;27;20078;-89
2023/04/15 08:30:22;;;;;;;12.23;5.57;;;10.10;99.90;;;;;;5082362;28;20092;-89
2023/04/15 08:32:49;;;;;;;10.95;5.63;;;10.10;99.90;;;;;;5075033;28;20036;-89
2023/04/15 08:35:14;;;;;;;11.57;5.28;;;10.10;99.90;;;;;;5083823;28;20031;-90
2023/04/15 08:37:40;;;;;;;13.00;6.97;;;10.20;99.90;;;;;;5075826;28;20039;-89
2023/04/15 08:40:08;;;;;;;12.35;5.90;;;10.20;99.90;;;;;;5101390;27;20031;-88
2023/04/15 08:42:40;;;;;;;11.32;5.40;;;10.20;99.90;;;;;;5095948;27;20050;-89
2023/04/15 08:45:09;;;;;;;11.40;5.03;;;10.30;99.90;;;;;;5111596;28;20473;-89
2023/04/15 08:47:38;;;;;;;11.00;4.85;;;10.40;99.90;;;;;;5098567;28;20043;-89
2023/04/15 08:50:07;;;;;;;10.68;5.57;;;10.40;99.90;;;;;;5092151;28;20040;-89
2023/04/15 08:52:33;;;;;;;9.75;4.97;;;10.50;99.90;;;;;;5082814;28;20036;-89
2023/04/15 08:55:01;;;;;;;10.23;4.10;;;10.50;99.90;;;;;;5092050;28;20034;-90
2023/04/15 08:57:27;;;;;;;11.70;4.40;;;10.60;99.90;;;;;;5093037;28;20051;-90
2023/04/15 08:59:56;;;;;;;9.50;4.40;;;10.60;99.90;;;;;;5092928;28;20046;-89
2023/04/15 09:02:25;;;;;;;9.00;3.78;;;10.70;99.90;;;;;;5095509;28;20043;-90
2023/04/15 09:04:50;;;;;;;9.88;3.80;;;10.70;99.90;;;;;;5086696;28;20118;-89
2023/04/15 09:07:16;;;;;;;8.13;3.50;;;10.70;99.90;;;;;;5097563;27;20479;-89
2023/04/15 09:09:42;;;;;;;9.57;3.60;;;10.60;99.90;;;;;;5092353;28;20031;-89
2023/04/15 09:12:11;;;;;;;9.45;3.28;;;10.60;99.90;;;;;;5079155;28;20035;-90
2023/04/15 09:14:39;;;;;;;7.78;3.40;;;10.60;99.90;;;;;;5096608;28;20119;-90
2023/04/15 09:17:05;;;;;;;7.30;2.88;;;10.60;99.90;;;;;;5088756;27;20157;-89
2023/04/15 09:19:33;;;;;;;7.60;3.00;;;10.60;99.90;;;;;;5099701;27;20555;-89
2023/04/15 09:21:58;;;;;;;10.35;3.53;;;10.60;99.90;;;;;;5099751;27;20039;-90
2023/04/15 09:24:25;;;;;;;8.10;2.97;;;10.70;99.90;;;;;;5081819;28;20039;-90
2023/04/15 09:26:54;;;;;;;7.70;3.03;;;10.80;99.90;;;;;;5080312;28;20074;-90
2023/04/15 09:29:23;;;;;;;9.80;2.70;;;10.80;99.90;;;;;;5104373;28;20043;-89
2023/04/15 09:31:48;;;;;;;7.95;2.80;;;10.80;99.90;;;;;;5078509;28;20047;-90
2023/04/15 09:34:14;;;;;;;11.23;3.08;;;10.90;99.90;;;;;;5093279;27;20034;-90
2023/04/15 09:36:46;;;;;;;7.25;2.85;;;10.80;99.90;;;;;;5099413;27;20031;-90
2023/04/15 09:39:12;;;;;;;8.32;2.90;;;10.80;99.90;;;;;;5099433;27;20042;-90
2023/04/15 09:41:38;;;;;;;7.38;2.60;;;10.80;99.90;;;;;;5122250;27;20433;-90
2023/04/15 09:44:04;;;;;;;7.53;2.70;;;10.80;99.90;;;;;;5108951;27;20523;-90
2023/04/15 09:46:43;;;;;;;8.65;2.75;;;10.70;99.90;;;;;;5124827;27;20138;-90
2023/04/15 09:49:10;;;;;;;7.68;3.15;;;10.70;99.90;;;;;;5099401;27;20181;-90
2023/04/15 09:51:36;;;;;;;8.88;2.63;;;10.70;99.90;;;;;;5102704;27;20065;-90
2023/04/15 09:54:03;;;;;;;8.65;2.78;;;10.70;99.90;;;;;;5105406;27;20033;-89
2023/04/15 09:56:40;;;;;;;8.63;2.50;;;10.70;99.90;;;;;;5116134;27;20035;-91
2023/04/15 09:59:06;;;;;;;6.22;2.22;;;10.70;99.90;;;;;;5113684;27;20038;-89
2023/04/15 10:01:32;;;;;;;7.20;2.40;;;10.70;99.90;;;;;;5114727;27;20035;-89
2023/04/15 10:04:01;;;;;;;6.57;2.08;;;10.70;99.90;;;;;;5097726;27;20047;-90
2023/04/15 10:06:28;;;;;;;9.55;2.70;;;10.70;99.90;;;;;;5098872;27;20043;-90
2023/04/15 10:08:54;;;;;;;4.90;1.98;;;10.70;99.90;;;;;;5099220;27;20035;-90
2023/04/15 10:11:22;;;;;;;6.07;2.25;;;10.80;99.90;;;;;;5091715;28;20039;-90
2023/04/15 10:13:49;;;;;;;7.45;2.20;;;10.90;99.90;;;;;;5114892;27;20035;-90
2023/04/15 10:16:18;;;;;;;6.68;2.78;;;10.90;99.90;;;;;;5098984;27;20035;-90
2023/04/15 10:18:45;;;;;;;7.68;2.10;;;11.00;99.90;;;;;;5098235;27;20118;-90
2023/04/15 10:21:17;;;;;;;6.40;2.15;;;11.00;99.90;;;;;;5098644;27;20073;-90
2023/04/15 10:23:46;;;;;;;8.32;2.13;;;11.00;99.90;;;;;;5094765;27;20060;-90
2023/04/15 10:26:13;;;;;;;6.47;2.17;;;11.00;99.90;;;;;;5078924;28;20128;-90
2023/04/15 10:28:43;;;;;;;6.93;1.80;;;11.00;99.90;;;;;;5078193;28;20047;-90
2023/04/15 10:31:13;;;;;;;7.75;2.40;;;11.00;99.90;;;;;;5093516;27;20035;-90
2023/04/15 10:33:41;;;;;;;5.55;1.83;;;11.00;99.90;;;;;;5115243;27;20488;-90
2023/04/15 10:36:07;;;;;;;4.63;1.98;;;11.00;99.90;;;;;;5097855;27;20123;-90
2023/04/15 10:38:41;;;;;;;7.20;2.47;;;11.10;99.90;;;;;;5115432;27;20095;-90
2023/04/15 10:41:13;;;;;;;6.78;2.15;;;11.10;99.90;;;;;;5098279;27;20078;-89
2023/04/15 10:43:44;;;;;;;7.67;2.03;;;11.10;99.90;;;;;;5109155;27;20035;-90
2023/04/15 10:46:09;;;;;;;7.00;1.85;;;11.10;99.90;;;;;;5115392;27;20683;-90
2023/04/15 10:48:35;;;;;;;6.78;2.58;;;11.10;99.90;;;;;;5098504;27;20482;-90
2023/04/15 10:51:02;;;;;;;6.38;1.88;;;11.10;99.90;;;;;;5116614;27;20114;-91
2023/04/15 10:53:29;;;;;;;6.43;2.08;;;11.10;99.90;;;;;;5116561;27;20044;-90
2023/04/15 10:55:56;;;;;;;7.70;2.03;;;11.20;99.90;;;;;;5097232;27;20039;-90
2023/04/15 10:58:25;;;;;;;5.80;1.90;;;11.20;99.90;;;;;;5115649;27;20066;-90
2023/04/15 11:00:52;;;;;;;9.15;2.15;;;11.20;99.90;;;;;;5088918;27;20242;-90
2023/04/15 11:03:39;;;;;;;7.13;2.03;;;11.20;99.90;;;;;;5094403;27;20041;-90
2023/04/15 11:06:06;;;;;;;9.90;2.03;;;11.20;99.90;;;;;;5109564;27;20039;-91
2023/04/15 11:08:55;;;;;;;7.03;2.30;;;11.20;99.90;;;;;;5098100;27;20395;-91
2023/04/15 11:11:21;;;;;;;6.10;2.08;;;11.30;99.90;;;;;;5096592;27;20046;-89
2023/04/15 11:13:53;;;;;;;5.80;1.88;;;11.30;99.90;;;;;;5082082;28;20122;-90
2023/04/15 11:16:19;;;;;;;6.13;2.33;;;11.30;99.90;;;;;;5094055;28;20035;-90
2023/04/15 11:18:55;;;;;;;9.05;2.67;;;11.40;99.90;;;;;;5103037;27;20065;-90
2023/04/15 11:21:25;;;;;;;7.38;2.47;;;11.50;99.90;;;;;;5101459;27;20038;-90
2023/04/15 11:23:50;;;;;;;7.35;2.80;;;11.50;99.90;;;;;;5097781;27;20084;-90
2023/04/15 11:26:16;;;;;;;7.68;2.65;;;11.40;99.90;;;;;;5102215;27;20035;-90
2023/04/15 11:28:44;;;;;;;6.95;2.05;;;11.50;99.90;;;;;;5100696;27;20035;-90
2023/04/15 11:31:16;;;;;;;4.85;1.90;;;11.50;99.90;;;;;;5100123;27;20090;-90
2023/04/15 11:34:01;;;;;;;4.97;1.52;;;11.70;99.90;;;;;;5108859;27;20053;-90
2023/04/15 11:36:29;;;;;;;5.88;1.83;;;11.70;99.90;;;;;;5121487;27;20034;-90
2023/04/15 11:38:57;;;;;;;7.55;2.15;;;11.80;99.90;;;;;;5121315;27;20070;-90
2023/04/15 11:41:22;;;;;;;5.63;1.73;;;11.80;99.90;;;;;;5107834;27;20042;-91
2023/04/15 11:43:49;;;;;;;7.82;1.92;;;11.80;99.90;;;;;;5104327;27;20057;-90
2023/04/15 11:46:15;;;;;;;4.93;1.60;;;11.80;99.90;;;;;;5125072;27;20511;-90
2023/04/15 11:48:43;;;;;;;6.80;2.00;;;11.70;99.90;;;;;;5105929;27;20045;-91
2023/04/15 11:51:10;;;;;;;7.28;2.45;;;11.70;99.90;;;;;;5101387;27;20403;-90
2023/04/15 11:53:48;;;;;;;6.93;2.55;;;11.60;99.90;;;;;;5104749;27;20079;-91
2023/04/15 11:56:22;;;;;;;7.55;2.10;;;11.70;99.90;;;;;;5122393;27;20570;-91
2023/04/15 11:58:52;;;;;;;4.97;1.85;;;11.60;99.90;;;;;;5098872;27;20415;-90
2023/04/15 12:01:18;;;;;;;6.43;1.90;;;11.60;99.90;;;;;;5107257;27;20117;-89
2023/04/15 12:03:50;;;;;;;5.90;2.05;;;11.60;99.90;;;;;;5118873;27;20114;-90
2023/04/15 12:06:18;;;;;;;6.22;1.90;;;11.50;99.90;;;;;;5105807;27;20034;-90
2023/04/15 12:08:47;;;;;;;10.20;3.03;;;11.50;99.90;;;;;;5116570;27;20095;-90
2023/04/15 12:11:17;;;;;;;10.02;3.05;;;11.50;99.90;;;;;;5102598;27;20035;-90
2023/04/15 12:13:50;;;;;;;6.18;2.10;;;11.50;99.90;;;;;;5107506;27;20395;-90
2023/04/15 12:16:17;;;;;;;8.18;2.30;;;11.40;99.90;;;;;;5100724;27;20492;-91
2023/04/15 12:18:46;;;;;;;7.30;2.05;;;11.40;99.90;;;;;;5096453;27;20035;-90
2023/04/15 12:21:11;;;;;;;5.70;1.80;;;11.50;99.90;;;;;;5109375;28;20035;-90
2023/04/15 12:23:39;;;;;;;6.57;1.77;;;11.50;99.90;;;;;;5076311;28;20046;-90
2023/04/15 12:26:07;;;;;;;7.40;2.08;;;11.70;99.90;;;;;;5077843;27;20070;-91
2023/04/15 12:28:35;;;;;;;9.68;2.47;;;11.70;99.90;;;;;;5081643;28;20040;-90
2023/04/15 12:31:07;;;;;;;9.05;2.35;;;11.70;99.90;;;;;;5075574;28;20126;-91
2023/04/15 12:33:33;;;;;;;9.57;2.53;;;11.70;99.90;;;;;;5093212;27;20032;-90
2023/04/15 12:35:59;;;;;;;6.60;1.90;;;11.60;99.90;;;;;;5112717;27;20084;-90
2023/04/15 12:38:24;;;;;;;9.48;2.50;;;11.60;99.90;;;;;;5092086;28;20089;-91
2023/04/15 12:40:50;;;;;;;6.97;1.85;;;11.60;99.90;;;;;;5090389;27;20040;-90
2023/04/15 12:43:16;;;;;;;8.82;1.90;;;11.60;99.90;;;;;;5094861;27;20043;-91
2023/04/15 12:45:41;;;;;;;3.33;1.13;;;11.60;99.90;;;;;;5111519;27;20509;-91